Terminal Aerodrome Forecast
Issued by NWS Charleston, WV

Current Version | Previous Version | Graphics & Text | Print | Product List | Glossary On
Versions: 1 2 3 4 5 6 7 8 9 10 11 12 13 14 15 16 17 18 19 20 21 22 23 24 25 26 27
000
FTUS41 KRLX 251911 AAB
TAFPKB
TAF AMD
KPKB 251911Z 2519/2618 22008KT P6SM -SHRA VCTS BKN045CB
     FM260500 VRB02KT 3SM -RA BKN045
     FM260900 VRB02KT 1/2SM -RA BKN022
     FM261200 00000KT 3SM -RA BKN012
     FM261300 VRB02KT P6SM BKN026=

USA.gov is the U.S. government's official web portal to all federal, state and local government web resources and services.